createdAt,value
2022-10-05T00:01:49.031Z,16.20
2022-10-05T00:04:20.333Z,16.20
2022-10-05T00:06:51.182Z,16.20
2022-10-05T00:09:21.847Z,16.20
2022-10-05T00:11:50.984Z,16.20
2022-10-05T00:14:19.921Z,16.20
2022-10-05T00:16:47.649Z,16.20
2022-10-05T00:19:23.528Z,16.10
2022-10-05T00:21:50.337Z,16.10
2022-10-05T00:24:20.313Z,16.10
2022-10-05T00:26:49.395Z,16.10
2022-10-05T00:29:22.486Z,16.10
2022-10-05T00:31:50.158Z,16.10
2022-10-05T00:34:17.761Z,16.10
2022-10-05T00:36:45.507Z,16.10
2022-10-05T00:39:12.554Z,16.10
2022-10-05T00:42:03.050Z,16.10
2022-10-05T00:44:40.856Z,16.10
2022-10-05T00:47:19.993Z,16.10
2022-10-05T00:50:06.037Z,16.10
2022-10-05T00:52:41.365Z,16.00
2022-10-05T00:55:13.072Z,16.00
2022-10-05T00:57:54.570Z,16.00
2022-10-05T01:00:25.950Z,16.00
2022-10-05T01:02:59.339Z,16.00
2022-10-05T01:05:51.371Z,16.00
2022-10-05T01:08:28.968Z,16.00
2022-10-05T01:11:07.557Z,16.00
2022-10-05T01:13:43.396Z,16.00
2022-10-05T01:16:20.941Z,16.00
2022-10-05T01:18:53.656Z,15.90
2022-10-05T01:21:22.772Z,16.00
2022-10-05T01:24:23.269Z,16.00
2022-10-05T01:27:05.335Z,16.00
2022-10-05T01:29:40.725Z,15.90
2022-10-05T01:32:12.713Z,15.90
2022-10-05T01:34:43.051Z,15.90
2022-10-05T01:37:16.927Z,15.90
2022-10-05T01:39:48.122Z,15.80
2022-10-05T01:42:26.587Z,15.80
2022-10-05T01:45:02.982Z,15.80
2022-10-05T01:47:37.478Z,15.70
2022-10-05T01:50:11.527Z,15.70
2022-10-05T01:52:48.501Z,15.70
2022-10-05T01:55:22.785Z,15.70
2022-10-05T01:58:02.789Z,15.60
2022-10-05T02:00:34.764Z,15.60
2022-10-05T02:03:06.138Z,15.60
2022-10-05T02:05:38.051Z,15.60
2022-10-05T02:08:09.832Z,15.50
2022-10-05T02:10:38.623Z,15.50
2022-10-05T02:13:11.444Z,15.50
2022-10-05T02:15:44.694Z,15.50
2022-10-05T02:18:17.997Z,15.50
2022-10-05T02:20:46.651Z,15.50
2022-10-05T02:23:17.881Z,15.40
2022-10-05T02:25:49.399Z,15.40
2022-10-05T02:28:21.966Z,15.40
2022-10-05T02:30:54.276Z,15.40
2022-10-05T02:33:27.020Z,15.30
2022-10-05T02:35:53.993Z,15.30
2022-10-05T02:38:31.420Z,15.30
2022-10-05T02:41:06.012Z,15.30
2022-10-05T02:43:41.829Z,15.30
2022-10-05T02:46:19.277Z,15.30
2022-10-05T02:48:56.028Z,15.30
2022-10-05T02:51:26.407Z,15.30
2022-10-05T02:54:06.596Z,15.30
2022-10-05T02:56:45.977Z,15.30
2022-10-05T02:59:17.382Z,15.30
2022-10-05T03:01:51.697Z,15.30
2022-10-05T03:04:27.620Z,15.30
2022-10-05T03:07:03.858Z,15.30
2022-10-05T03:09:41.764Z,15.30
2022-10-05T03:12:21.739Z,15.30
2022-10-05T03:15:00.012Z,15.30
2022-10-05T03:17:33.998Z,15.30
2022-10-05T03:20:11.124Z,15.30
2022-10-05T03:22:47.678Z,15.30
2022-10-05T03:25:43.708Z,15.30
2022-10-05T03:28:16.395Z,15.30
2022-10-05T03:30:51.930Z,15.30
2022-10-05T03:33:28.752Z,15.30
2022-10-05T03:36:03.983Z,15.40
2022-10-05T03:38:42.052Z,15.30
2022-10-05T03:41:16.702Z,15.40
2022-10-05T03:44:04.422Z,15.40
2022-10-05T03:46:44.620Z,15.40
2022-10-05T03:49:22.004Z,15.40
2022-10-05T03:51:51.797Z,15.40
2022-10-05T03:54:23.663Z,15.40
2022-10-05T03:56:54.932Z,15.40
2022-10-05T03:59:31.553Z,15.40
2022-10-05T04:02:02.325Z,15.40
2022-10-05T04:04:34.865Z,15.40
2022-10-05T04:07:04.715Z,15.40
2022-10-05T04:09:36.634Z,15.40
2022-10-05T04:12:16.208Z,15.40
2022-10-05T04:14:48.389Z,15.50
2022-10-05T04:17:18.674Z,15.50
2022-10-05T04:19:59.210Z,15.40
2022-10-05T04:22:30.816Z,15.50
2022-10-05T04:25:02.057Z,15.50
2022-10-05T04:27:33.613Z,15.50
2022-10-05T04:30:05.187Z,15.50
2022-10-05T04:32:38.748Z,15.40
2022-10-05T04:35:24.221Z,15.50
2022-10-05T04:37:59.219Z,15.50
2022-10-05T04:40:40.695Z,15.50
2022-10-05T04:43:15.308Z,15.50
2022-10-05T04:45:57.630Z,15.50
2022-10-05T04:48:54.288Z,15.50
2022-10-05T04:51:35.774Z,15.50
2022-10-05T04:54:12.161Z,15.50
2022-10-05T04:56:45.148Z,15.50
2022-10-05T04:59:50.237Z,15.50
2022-10-05T05:02:25.605Z,15.50
2022-10-05T05:05:21.644Z,15.50
2022-10-05T05:07:55.243Z,15.50
2022-10-05T05:10:47.043Z,15.50
2022-10-05T05:13:32.749Z,15.60
2022-10-05T05:16:04.611Z,15.60
2022-10-05T05:18:55.168Z,15.60
2022-10-05T05:21:33.176Z,15.60
2022-10-05T05:24:09.289Z,15.60
2022-10-05T05:26:50.977Z,15.60
2022-10-05T05:29:23.399Z,15.60
2022-10-05T05:31:56.330Z,15.60
2022-10-05T05:34:39.578Z,15.60
2022-10-05T05:37:17.025Z,15.60
2022-10-05T05:39:58.825Z,15.60
2022-10-05T05:42:35.126Z,15.60
2022-10-05T05:45:11.793Z,15.60
2022-10-05T05:47:45.163Z,15.60
2022-10-05T05:50:32.552Z,15.60
2022-10-05T05:53:05.935Z,15.60
2022-10-05T05:55:39.588Z,15.50
2022-10-05T05:58:14.171Z,15.60
2022-10-05T06:00:46.570Z,15.60
2022-10-05T06:03:18.935Z,15.60
2022-10-05T06:05:50.047Z,15.50
2022-10-05T06:08:27.970Z,15.50
2022-10-05T06:11:00.007Z,15.60
2022-10-05T06:13:32.896Z,15.60
2022-10-05T06:16:09.338Z,15.60
2022-10-05T06:18:39.897Z,15.60
2022-10-05T06:21:16.081Z,15.60
2022-10-05T06:23:46.554Z,15.60
2022-10-05T06:26:39.514Z,15.60
2022-10-05T06:29:11.549Z,15.60
2022-10-05T06:31:59.083Z,15.60
2022-10-05T06:34:40.588Z,15.60
2022-10-05T06:37:14.085Z,15.70
2022-10-05T06:40:05.175Z,15.60
2022-10-05T06:42:59.615Z,15.70
2022-10-05T06:45:36.075Z,15.70
2022-10-05T06:48:11.738Z,15.70
2022-10-05T06:50:43.264Z,15.70
2022-10-05T06:53:27.045Z,15.60
2022-10-05T06:55:58.883Z,15.60
2022-10-05T06:58:42.572Z,15.60
2022-10-05T07:01:18.018Z,15.60
2022-10-05T07:04:02.009Z,15.60
2022-10-05T07:06:37.501Z,15.60
2022-10-05T07:09:17.279Z,15.60
2022-10-05T07:12:05.059Z,15.60
2022-10-05T07:14:50.424Z,15.60
2022-10-05T07:17:28.285Z,15.70
2022-10-05T07:20:04.243Z,15.70
2022-10-05T07:22:57.441Z,15.70
2022-10-05T07:25:28.923Z,15.70
2022-10-05T07:28:01.567Z,15.70
2022-10-05T07:30:37.973Z,15.70
2022-10-05T07:33:13.451Z,15.80
2022-10-05T07:36:08.374Z,15.80
2022-10-05T07:38:40.841Z,15.80
2022-10-05T07:41:13.795Z,15.80
2022-10-05T07:44:05.734Z,15.80
2022-10-05T07:46:47.078Z,15.80
2022-10-05T07:49:32.326Z,15.80
2022-10-05T07:52:02.508Z,15.80
2022-10-05T07:54:37.544Z,15.80
2022-10-05T07:57:12.950Z,15.90
2022-10-05T07:59:48.467Z,15.90
2022-10-05T08:02:25.892Z,15.80
2022-10-05T08:05:00.199Z,15.90
2022-10-05T08:07:29.530Z,15.90
2022-10-05T08:10:03.488Z,15.90
2022-10-05T08:12:34.540Z,15.90
2022-10-05T08:15:07.202Z,15.90
2022-10-05T08:17:48.387Z,15.90
2022-10-05T08:20:27.941Z,15.90
2022-10-05T08:22:58.255Z,15.90
2022-10-05T08:25:26.976Z,15.90
2022-10-05T08:28:03.268Z,15.90
2022-10-05T08:30:34.454Z,16.00
2022-10-05T08:33:07.387Z,16.00
2022-10-05T08:35:39.420Z,16.00
2022-10-05T08:38:12.827Z,16.00
2022-10-05T08:41:31.072Z,16.00
2022-10-05T08:44:48.337Z,16.00
2022-10-05T08:47:39.096Z,16.00
2022-10-05T08:50:28.689Z,16.00
2022-10-05T08:53:21.634Z,16.10
2022-10-05T08:56:04.500Z,16.10
2022-10-05T08:58:57.384Z,16.10
2022-10-05T09:01:40.773Z,16.20
2022-10-05T09:04:25.046Z,16.20
2022-10-05T09:07:15.412Z,16.20
2022-10-05T09:10:19.386Z,16.20
2022-10-05T09:13:25.768Z,16.20
2022-10-05T09:16:46.704Z,16.30
2022-10-05T09:19:40.054Z,16.30
2022-10-05T09:22:23.006Z,16.30
2022-10-05T09:24:56.822Z,16.40
2022-10-05T09:27:35.711Z,16.40
2022-10-05T09:30:31.088Z,16.40
2022-10-05T09:33:33.287Z,16.40
2022-10-05T09:36:27.885Z,16.40
2022-10-05T09:39:29.321Z,16.50
2022-10-05T09:42:28.494Z,16.60
2022-10-05T09:45:44.628Z,16.60
2022-10-05T09:48:45.650Z,16.70
2022-10-05T09:51:51.652Z,16.70
2022-10-05T09:54:56.992Z,16.70
2022-10-05T09:58:12.564Z,16.80
2022-10-05T10:01:09.574Z,16.80
2022-10-05T10:04:13.879Z,16.90
2022-10-05T10:07:09.370Z,16.90
2022-10-05T10:09:50.213Z,16.90
2022-10-05T10:12:31.458Z,16.90
2022-10-05T10:15:32.346Z,17.00
2022-10-05T10:18:27.694Z,17.00
2022-10-05T10:21:33.707Z,17.00
2022-10-05T10:24:10.901Z,17.10
2022-10-05T10:27:13.624Z,17.10
2022-10-05T10:30:27.732Z,17.10
2022-10-05T10:33:15.524Z,17.10
2022-10-05T10:35:51.974Z,17.10
2022-10-05T10:38:37.049Z,17.10
2022-10-05T10:41:21.670Z,17.10
2022-10-05T10:44:39.625Z,17.10
2022-10-05T10:47:37.167Z,17.10
2022-10-05T10:50:39.801Z,17.10
2022-10-05T10:53:28.149Z,17.10
2022-10-05T10:56:13.772Z,17.20
2022-10-05T10:58:56.430Z,17.20
2022-10-05T11:01:34.548Z,17.10
2022-10-05T11:04:49.627Z,17.20
2022-10-05T11:07:54.198Z,17.20
2022-10-05T11:10:51.119Z,17.30
2022-10-05T11:13:41.022Z,17.30
2022-10-05T11:16:25.488Z,17.30
2022-10-05T11:19:14.679Z,17.40
2022-10-05T11:21:55.231Z,17.40
2022-10-05T11:25:04.157Z,17.40
2022-10-05T11:27:49.932Z,17.40
2022-10-05T11:31:05.173Z,17.50
2022-10-05T11:33:48.224Z,17.50
2022-10-05T11:36:50.266Z,17.50
2022-10-05T11:39:33.423Z,17.50
2022-10-05T11:42:44.128Z,17.50
2022-10-05T11:45:21.617Z,17.60
2022-10-05T11:48:20.257Z,17.60
2022-10-05T11:51:00.909Z,17.70
2022-10-05T11:53:33.089Z,17.70
2022-10-05T11:56:14.255Z,17.70
2022-10-05T11:58:51.321Z,17.70
2022-10-05T12:01:24.551Z,17.70
2022-10-05T12:03:59.715Z,17.70
2022-10-05T12:06:53.325Z,17.70
2022-10-05T12:09:33.619Z,17.70
2022-10-05T12:12:14.844Z,17.70
2022-10-05T12:14:51.296Z,17.80
2022-10-05T12:17:29.362Z,17.80
2022-10-05T12:19:59.348Z,17.80
2022-10-05T12:22:32.474Z,17.80
2022-10-05T12:25:33.579Z,17.90
2022-10-05T12:28:08.662Z,17.90
2022-10-05T12:31:03.837Z,18.00
2022-10-05T12:33:36.290Z,18.00
2022-10-05T12:36:07.821Z,18.20
2022-10-05T12:38:40.388Z,18.20
2022-10-05T12:41:16.193Z,18.30
2022-10-05T12:43:59.992Z,18.30
2022-10-05T12:46:38.357Z,18.40
2022-10-05T12:49:34.756Z,18.40
2022-10-05T12:52:04.911Z,18.40
2022-10-05T12:54:44.868Z,18.40
2022-10-05T12:57:20.044Z,18.40
2022-10-05T12:59:55.167Z,18.40
2022-10-05T13:02:30.916Z,18.40
2022-10-05T13:05:07.009Z,18.40
2022-10-05T13:07:57.756Z,18.40
2022-10-05T13:10:32.716Z,18.50
2022-10-05T13:13:13.338Z,18.40
2022-10-05T13:15:50.703Z,18.50
2022-10-05T13:18:26.091Z,18.40
2022-10-05T13:21:02.160Z,18.50
2022-10-05T13:23:41.115Z,18.50
2022-10-05T13:26:12.736Z,18.50
2022-10-05T13:28:44.824Z,18.50
2022-10-05T13:31:18.554Z,18.50
2022-10-05T13:34:02.544Z,18.50
2022-10-05T13:36:41.770Z,18.50
2022-10-05T13:39:21.307Z,18.50
2022-10-05T13:41:54.575Z,18.50
2022-10-05T13:44:31.395Z,18.50
2022-10-05T13:47:03.905Z,18.50
2022-10-05T13:49:41.726Z,18.60
2022-10-05T13:52:24.694Z,18.60
2022-10-05T13:54:58.087Z,18.60
2022-10-05T13:57:45.195Z,18.50
2022-10-05T14:00:19.473Z,18.50
2022-10-05T14:02:51.539Z,18.50
2022-10-05T14:05:20.961Z,18.50
2022-10-05T14:07:53.931Z,18.60
2022-10-05T14:10:33.861Z,18.50
2022-10-05T14:13:02.698Z,18.50
2022-10-05T14:15:33.209Z,18.50
2022-10-05T14:18:22.674Z,18.50
2022-10-05T14:20:59.808Z,18.60
2022-10-05T14:23:27.471Z,18.60
2022-10-05T14:25:54.752Z,18.50
2022-10-05T14:28:29.498Z,18.50
2022-10-05T14:30:59.276Z,18.50
2022-10-05T14:33:30.490Z,18.50
2022-10-05T14:35:58.309Z,18.50
2022-10-05T14:38:28.559Z,18.40
2022-10-05T14:41:14.766Z,18.40
2022-10-05T14:43:50.299Z,18.40
2022-10-05T14:46:27.238Z,18.40
2022-10-05T14:49:17.009Z,18.40
2022-10-05T14:51:43.964Z,18.30
2022-10-05T14:54:27.788Z,18.30
2022-10-05T14:57:07.382Z,18.30
2022-10-05T15:00:08.654Z,18.30
2022-10-05T15:03:05.287Z,18.30
2022-10-05T15:05:37.860Z,18.30
2022-10-05T15:08:17.361Z,18.20
2022-10-05T15:10:50.975Z,18.20
2022-10-05T15:13:21.226Z,18.20
2022-10-05T15:15:53.229Z,18.20
2022-10-05T15:18:32.050Z,18.20
2022-10-05T15:21:26.638Z,18.20
2022-10-05T15:23:57.397Z,18.10
2022-10-05T15:26:38.941Z,18.10
2022-10-05T15:29:18.333Z,18.10
2022-10-05T15:31:54.933Z,18.00
2022-10-05T15:34:31.291Z,18.00
2022-10-05T15:37:07.194Z,18.00
2022-10-05T15:39:45.984Z,18.00
2022-10-05T15:42:16.650Z,18.00
2022-10-05T15:44:59.826Z,17.90
2022-10-05T15:47:35.138Z,17.90
2022-10-05T15:50:11.511Z,17.90
2022-10-05T15:52:46.093Z,17.90
2022-10-05T15:55:33.311Z,17.90
2022-10-05T15:58:20.212Z,17.90
2022-10-05T16:00:51.692Z,17.90
2022-10-05T16:03:24.914Z,17.90
2022-10-05T16:06:15.184Z,17.90
2022-10-05T16:09:00.420Z,17.90
2022-10-05T16:11:58.926Z,17.80
2022-10-05T16:14:34.558Z,17.80
2022-10-05T16:17:27.599Z,17.80
2022-10-05T16:20:08.685Z,17.80
2022-10-05T16:22:43.365Z,17.70
2022-10-05T16:25:22.123Z,17.70
2022-10-05T16:28:05.259Z,17.70
2022-10-05T16:30:42.388Z,17.70
2022-10-05T16:33:14.409Z,17.70
2022-10-05T16:35:52.771Z,17.70
2022-10-05T16:38:26.588Z,17.70
2022-10-05T16:41:02.281Z,17.70
2022-10-05T16:43:44.982Z,17.60
2022-10-05T16:46:22.211Z,17.60
2022-10-05T16:48:56.240Z,17.60
2022-10-05T16:51:31.039Z,17.60
2022-10-05T16:54:09.400Z,17.60
2022-10-05T16:56:42.576Z,17.60
2022-10-05T16:59:50.682Z,17.60
2022-10-05T17:02:30.666Z,17.60
2022-10-05T17:05:14.881Z,17.60
2022-10-05T17:07:59.200Z,17.50
2022-10-05T17:10:41.877Z,17.50
2022-10-05T17:13:23.336Z,17.50
2022-10-05T17:16:00.804Z,17.50
2022-10-05T17:19:16.906Z,17.50
2022-10-05T17:21:50.074Z,17.50
2022-10-05T17:24:36.626Z,17.50
2022-10-05T17:27:17.900Z,17.50
2022-10-05T17:29:51.801Z,17.50
2022-10-05T17:32:35.060Z,17.50
2022-10-05T17:35:20.780Z,17.50
2022-10-05T17:38:14.532Z,17.50
2022-10-05T17:41:05.354Z,17.50
2022-10-05T17:43:33.101Z,17.50
2022-10-05T17:46:03.149Z,17.50
2022-10-05T17:49:08.887Z,17.50
2022-10-05T17:52:24.274Z,17.50
2022-10-05T17:55:25.662Z,17.50
2022-10-05T17:57:53.166Z,17.40
2022-10-05T18:00:34.113Z,17.40
2022-10-05T18:03:34.229Z,17.50
2022-10-05T18:06:32.211Z,17.50
2022-10-05T18:09:33.131Z,17.50
2022-10-05T18:12:26.024Z,17.50
2022-10-05T18:14:59.111Z,17.50
2022-10-05T18:17:44.251Z,17.50
2022-10-05T18:20:18.654Z,17.50
2022-10-05T18:22:46.452Z,17.60
2022-10-05T18:25:29.397Z,17.60
2022-10-05T18:28:18.515Z,17.60
2022-10-05T18:31:03.955Z,17.60
2022-10-05T18:33:50.042Z,17.60
2022-10-05T18:36:49.035Z,17.70
2022-10-05T18:39:29.355Z,17.70
2022-10-05T18:42:07.096Z,17.70
2022-10-05T18:44:40.322Z,17.70
2022-10-05T18:47:15.618Z,17.70
2022-10-05T18:50:02.710Z,17.70
2022-10-05T18:52:46.316Z,17.70
2022-10-05T18:55:19.046Z,17.70
2022-10-05T18:58:13.348Z,17.70
2022-10-05T19:01:05.028Z,17.70
2022-10-05T19:03:39.675Z,17.70
2022-10-05T19:06:13.973Z,17.70
2022-10-05T19:08:53.150Z,17.70
2022-10-05T19:11:27.864Z,17.80
2022-10-05T19:14:05.538Z,17.70
2022-10-05T19:17:05.086Z,17.70
2022-10-05T19:19:52.440Z,17.70
2022-10-05T19:22:32.026Z,17.70
2022-10-05T19:25:20.477Z,17.80
2022-10-05T19:28:00.134Z,17.80
2022-10-05T19:30:41.976Z,17.80
2022-10-05T19:33:26.457Z,17.80
2022-10-05T19:36:07.535Z,17.80
2022-10-05T19:38:52.085Z,17.80
2022-10-05T19:41:27.294Z,17.80
2022-10-05T19:44:13.016Z,17.50
2022-10-05T19:46:55.070Z,17.10
2022-10-05T19:49:43.137Z,16.70
2022-10-05T19:52:13.325Z,16.40
2022-10-05T19:54:42.773Z,16.00
2022-10-05T19:57:20.178Z,15.90
2022-10-05T19:59:48.307Z,15.80
2022-10-05T20:02:16.990Z,15.70
2022-10-05T20:04:45.825Z,15.60
2022-10-05T20:07:15.661Z,15.50
2022-10-05T20:09:52.159Z,15.40
2022-10-05T20:12:22.978Z,15.40
2022-10-05T20:15:27.600Z,15.40
2022-10-05T20:18:12.916Z,15.40
2022-10-05T20:20:47.081Z,15.40
2022-10-05T20:23:23.780Z,15.40
2022-10-05T20:26:11.094Z,15.30
2022-10-05T20:28:39.617Z,15.30
2022-10-05T20:31:07.643Z,15.30
2022-10-05T20:33:34.515Z,15.30
2022-10-05T20:36:03.530Z,15.30
2022-10-05T20:38:35.233Z,15.30
2022-10-05T20:41:05.753Z,15.30
2022-10-05T20:43:35.727Z,15.20
2022-10-05T20:46:03.998Z,15.20
2022-10-05T20:48:31.198Z,15.30
2022-10-05T20:50:58.194Z,15.20
2022-10-05T20:53:25.081Z,15.20
2022-10-05T20:55:52.258Z,15.20
2022-10-05T20:58:19.449Z,15.20
2022-10-05T21:01:07.633Z,15.20
2022-10-05T21:03:36.047Z,15.10
2022-10-05T21:06:03.205Z,15.20
2022-10-05T21:08:30.301Z,15.20
2022-10-05T21:11:01.573Z,15.10
2022-10-05T21:13:28.758Z,15.00
2022-10-05T21:15:56.486Z,15.00
2022-10-05T21:18:23.662Z,15.00
2022-10-05T21:20:51.915Z,15.00
2022-10-05T21:23:18.779Z,15.00
2022-10-05T21:25:46.137Z,14.90
2022-10-05T21:28:13.056Z,14.90
2022-10-05T21:30:40.274Z,14.90
2022-10-05T21:33:07.153Z,14.90
2022-10-05T21:35:34.641Z,14.90
2022-10-05T21:38:02.890Z,14.90
2022-10-05T21:40:32.619Z,14.80
2022-10-05T21:42:59.960Z,14.70
2022-10-05T21:45:29.003Z,14.70
2022-10-05T21:47:56.886Z,14.60
2022-10-05T21:50:24.373Z,14.60
2022-10-05T21:52:51.886Z,14.50
2022-10-05T21:55:21.147Z,14.50
2022-10-05T21:57:51.105Z,14.50
2022-10-05T22:00:18.116Z,14.50
2022-10-05T22:02:45.199Z,14.50
2022-10-05T22:05:13.199Z,14.40
2022-10-05T22:07:40.085Z,14.40
2022-10-05T22:10:16.936Z,14.40
2022-10-05T22:12:47.123Z,14.40
2022-10-05T22:15:14.726Z,14.30
2022-10-05T22:17:43.602Z,14.30
2022-10-05T22:20:12.061Z,14.30
2022-10-05T22:22:39.193Z,14.30
2022-10-05T22:25:07.006Z,14.30
2022-10-05T22:27:35.521Z,14.30
2022-10-05T22:30:05.688Z,14.30
2022-10-05T22:32:32.977Z,14.30
2022-10-05T22:34:59.832Z,14.20
2022-10-05T22:37:27.270Z,14.20
2022-10-05T22:39:57.047Z,14.30
2022-10-05T22:42:23.863Z,14.20
2022-10-05T22:44:51.045Z,14.20
2022-10-05T22:47:21.303Z,14.20
2022-10-05T22:49:48.123Z,14.20
2022-10-05T22:52:18.295Z,14.20
2022-10-05T22:54:45.734Z,14.20
2022-10-05T22:57:12.546Z,14.20
2022-10-05T22:59:40.109Z,14.10
2022-10-05T23:02:06.986Z,14.10
2022-10-05T23:04:35.258Z,14.10
2022-10-05T23:07:02.930Z,14.10
2022-10-05T23:09:29.735Z,14.00
2022-10-05T23:11:56.591Z,14.10
2022-10-05T23:14:24.352Z,14.00
2022-10-05T23:16:51.638Z,14.00
2022-10-05T23:19:18.724Z,14.00
2022-10-05T23:21:47.303Z,13.90
2022-10-05T23:24:14.099Z,13.90
2022-10-05T23:26:41.217Z,13.90
2022-10-05T23:29:08.243Z,13.80
2022-10-05T23:31:36.893Z,13.80
2022-10-05T23:34:05.976Z,13.80
2022-10-05T23:36:32.980Z,13.70
2022-10-05T23:39:01.599Z,13.70
2022-10-05T23:41:29.666Z,13.70
2022-10-05T23:43:56.577Z,13.60
2022-10-05T23:46:23.955Z,13.60
2022-10-05T23:48:50.940Z,13.60
2022-10-05T23:51:18.661Z,13.60
2022-10-05T23:53:45.705Z,13.60
2022-10-05T23:56:14.672Z,13.50
2022-10-05T23:58:41.631Z,13.50
